Time;durP1;ratioP1;P1;durP2;ratioP2;P2;SDS_P1;SDS_P2;PMS_P1;PMS_P2;Temp;Humidity;BMP_temperature;BMP_pressure;BME280_temperature;BME280_humidity;BME280_pressure;Samples;Min_cycle;Max_cycle;Signal;HPM_P1;HPM_P2
2021/07/15 00:01:34;;;;;;;26.50;14.82;;;716.90;1996.80;;;;;;5081106;28;20025;-77
2021/07/15 00:04:00;;;;;;;23.92;16.05;;;716.80;2022.40;;;;;;5080953;28;20087;-77
2021/07/15 00:06:26;;;;;;;23.92;15.32;;;692.00;1996.80;;;;;;5064435;28;20055;-77
2021/07/15 00:08:57;;;;;;;27.08;15.60;;;692.00;1996.80;;;;;;5063063;28;20104;-77
2021/07/15 00:11:26;;;;;;;22.80;15.00;;;692.00;1996.80;;;;;;5080922;28;20016;-77
2021/07/15 00:13:54;;;;;;;25.00;15.05;;;691.80;1996.80;;;;;;5065913;28;20017;-76
2021/07/15 00:16:23;;;;;;;24.35;14.75;;;691.90;1996.80;;;;;;5083205;28;20115;-77
2021/07/15 00:18:50;;;;;;;26.73;15.30;;;691.70;1996.80;;;;;;5080357;28;20020;-77
2021/07/15 00:21:20;;;;;;;27.00;14.80;;;691.70;2022.40;;;;;;5064040;28;20027;-78
2021/07/15 00:23:46;;;;;;;29.33;16.30;;;691.50;2022.40;;;;;;5082353;28;20024;-78
2021/07/15 00:26:13;;;;;;;29.38;16.30;;;691.40;2022.40;;;;;;5085750;28;20023;-78
2021/07/15 00:28:40;;;;;;;34.28;15.27;;;691.60;2048.00;;;;;;5091436;28;20039;-77
2021/07/15 00:31:07;;;;;;;23.50;15.18;;;691.50;2048.00;;;;;;5073648;28;20048;-77
2021/07/15 00:33:33;;;;;;;24.15;15.02;;;691.40;2048.00;;;;;;5091389;28;20031;-77
2021/07/15 00:35:59;;;;;;;25.85;15.82;;;691.40;2073.60;;;;;;5072895;28;20052;-76
2021/07/15 00:38:26;;;;;;;22.33;15.57;;;691.30;2099.20;;;;;;5091744;28;20019;-79
2021/07/15 00:40:52;;;;;;;33.22;16.23;;;691.30;2099.20;;;;;;5073253;28;20110;-78
2021/07/15 00:43:19;;;;;;;27.30;15.73;;;691.20;2099.20;;;;;;5073600;28;20020;-77
2021/07/15 00:45:44;;;;;;;26.70;16.52;;;666.50;2099.20;;;;;;5091424;28;20028;-77
2021/07/15 00:48:11;;;;;;;22.60;15.65;;;666.50;2124.80;;;;;;5073615;28;20075;-77
2021/07/15 00:50:38;;;;;;;24.65;15.70;;;666.50;2124.80;;;;;;5073367;28;20028;-77
2021/07/15 00:53:05;;;;;;;26.50;16.48;;;666.30;2124.80;;;;;;5073645;28;20020;-77
2021/07/15 00:55:37;;;;;;;27.13;16.00;;;666.30;2150.40;;;;;;5072981;28;20114;-78
2021/07/15 00:58:04;;;;;;;25.98;16.20;;;666.30;2124.80;;;;;;5091809;28;20473;-78
2021/07/15 01:00:31;;;;;;;29.73;16.23;;;666.30;2124.80;;;;;;5092075;28;20056;-78
2021/07/15 01:02:57;;;;;;;30.35;17.02;;;666.30;2150.40;;;;;;5073593;28;20055;-78
2021/07/15 01:05:29;;;;;;;18.75;15.57;;;666.30;2150.40;;;;;;5091433;28;20047;-78
2021/07/15 01:07:55;;;;;;;24.60;14.88;;;666.20;2150.40;;;;;;5060040;28;20028;-79
2021/07/15 01:10:24;;;;;;;27.90;16.33;;;666.20;2150.40;;;;;;5073855;28;20515;-79
2021/07/15 01:13:08;;;;;;;23.05;15.25;;;666.20;2150.40;;;;;;5091520;28;20481;-77
2021/07/15 01:15:51;;;;;;;28.52;15.98;;;666.10;2150.40;;;;;;5091504;28;20036;-78
2021/07/15 01:18:44;;;;;;;28.23;17.05;;;666.00;2176.00;;;;;;5061322;28;20469;-78
2021/07/15 01:21:19;;;;;;;26.75;15.30;;;666.00;2176.00;;;;;;4973524;28;20121;-78
2021/07/15 01:23:54;;;;;;;;;;;666.00;2176.00;;;;;;4990456;28;20107;-78
2021/07/15 01:26:52;;;;;;;22.05;16.00;;;665.90;2176.00;;;;;;4989837;28;19905;-77
2021/07/15 01:29:32;;;;;;;30.55;17.40;;;665.90;2176.00;;;;;;4990028;28;20105;-76
2021/07/15 01:32:03;;;;;;;27.45;16.35;;;665.90;2176.00;;;;;;4973854;28;20066;-77
2021/07/15 01:34:30;;;;;;;28.83;17.38;;;665.90;2176.00;;;;;;4989358;28;20053;-77
2021/07/15 01:36:57;;;;;;;23.70;16.20;;;665.80;2201.60;;;;;;4991151;28;20448;-78
2021/07/15 01:39:28;;;;;;;26.95;17.05;;;665.70;2201.60;;;;;;4993606;28;20038;-78
2021/07/15 01:41:59;;;;;;;25.55;16.02;;;665.60;2201.60;;;;;;4977642;28;20448;-77
2021/07/15 01:44:28;;;;;;;28.75;16.00;;;640.90;2201.60;;;;;;4993639;28;20045;-80
2021/07/15 01:46:54;;;;;;;26.38;17.17;;;640.90;2201.60;;;;;;4977304;28;20026;-77
2021/07/15 01:49:21;;;;;;;27.48;16.67;;;640.70;2201.60;;;;;;4993742;28;20050;-78
2021/07/15 01:51:47;;;;;;;31.80;16.25;;;640.90;2201.60;;;;;;4976853;28;20520;-79
2021/07/15 01:54:13;;;;;;;25.23;16.98;;;640.80;2201.60;;;;;;4993487;28;20030;-77
2021/07/15 01:56:41;;;;;;;21.85;17.45;;;640.70;2201.60;;;;;;4993168;28;20034;-77
2021/07/15 01:59:12;;;;;;;23.15;17.67;;;640.70;2201.60;;;;;;5085475;28;20028;-78
2021/07/15 02:01:40;;;;;;;22.15;17.38;;;640.70;2201.60;;;;;;5094768;28;20383;-77
2021/07/15 02:04:07;;;;;;;28.95;18.33;;;640.70;2201.60;;;;;;5076887;28;20035;-77
2021/07/15 02:06:35;;;;;;;27.45;17.02;;;640.60;2201.60;;;;;;5094816;28;20079;-77
2021/07/15 02:09:04;;;;;;;26.52;17.13;;;640.90;2201.60;;;;;;5076606;28;20066;-77
2021/07/15 02:11:33;;;;;;;19.80;16.55;;;640.80;2201.60;;;;;;5094987;28;20024;-77
2021/07/15 02:14:05;;;;;;;27.17;17.42;;;640.60;2201.60;;;;;;5094741;28;20024;-78
2021/07/15 02:16:35;;;;;;;23.13;16.40;;;640.60;2201.60;;;;;;5076852;28;20038;-78
2021/07/15 02:19:03;;;;;;;22.50;16.13;;;640.60;2201.60;;;;;;5076419;28;20055;-78
2021/07/15 02:21:31;;;;;;;27.85;16.58;;;640.60;2201.60;;;;;;5080364;28;20027;-77
2021/07/15 02:23:59;;;;;;;28.25;18.23;;;640.70;2201.60;;;;;;5076221;28;20056;-78
2021/07/15 02:26:28;;;;;;;20.38;16.63;;;640.70;2201.60;;;;;;5094530;28;20063;-78
2021/07/15 02:28:55;;;;;;;29.75;17.48;;;640.90;2201.60;;;;;;5094800;28;20028;-78
2021/07/15 02:31:35;;;;;;;23.83;17.17;;;640.90;2201.60;;;;;;5076113;28;20020;-78
2021/07/15 02:34:05;;;;;;;30.23;18.00;;;640.90;2201.60;;;;;;5094359;28;20043;-78
2021/07/15 02:36:33;;;;;;;22.13;16.25;;;640.80;2201.60;;;;;;5094362;28;20040;-78
2021/07/15 02:39:02;;;;;;;28.83;17.60;;;640.60;2201.60;;;;;;5094304;28;20024;-79
2021/07/15 02:41:28;;;;;;;28.45;17.65;;;640.60;2227.20;;;;;;5076127;28;20051;-78
2021/07/15 02:43:53;;;;;;;30.25;17.77;;;640.50;2227.20;;;;;;5076254;28;20401;-77
2021/07/15 02:46:19;;;;;;;26.15;16.50;;;640.60;2227.20;;;;;;5094273;28;20035;-77
2021/07/15 02:48:45;;;;;;;29.50;16.65;;;640.60;2227.20;;;;;;5075462;28;20028;-78
2021/07/15 02:51:11;;;;;;;29.27;16.90;;;640.60;2201.60;;;;;;5094186;28;20099;-77
2021/07/15 02:53:38;;;;;;;27.33;16.65;;;640.50;2227.20;;;;;;5093785;28;20469;-76
2021/07/15 02:56:40;;;;;;;37.13;17.02;;;640.40;2227.20;;;;;;5075915;28;20036;-77
2021/07/15 02:59:39;;;;;;;24.10;15.85;;;640.40;2227.20;;;;;;5089536;28;20085;-77
2021/07/15 03:02:21;;;;;;;26.08;17.42;;;640.50;2227.20;;;;;;5074951;28;20489;-79
2021/07/15 03:05:05;;;;;;;25.73;17.33;;;640.50;2227.20;;;;;;5093424;28;20560;-77
2021/07/15 03:07:44;;;;;;;25.77;16.40;;;640.60;2227.20;;;;;;5072437;28;20073;-77
2021/07/15 03:10:12;;;;;;;24.38;16.55;;;640.60;2227.20;;;;;;5093869;28;20023;-76
2021/07/15 03:12:40;;;;;;;25.30;16.27;;;640.60;2227.20;;;;;;5093399;28;20012;-77
2021/07/15 03:15:06;;;;;;;22.63;16.00;;;640.70;2201.60;;;;;;5075335;28;20027;-76
2021/07/15 03:17:36;;;;;;;28.02;16.60;;;640.60;2227.20;;;;;;5075487;28;20023;-78
2021/07/15 03:20:10;;;;;;;22.52;15.02;;;640.80;2201.60;;;;;;5085160;28;20031;-79
2021/07/15 03:22:37;;;;;;;31.60;16.23;;;640.80;2201.60;;;;;;5075276;28;20465;-77
2021/07/15 03:25:08;;;;;;;27.05;15.90;;;640.90;2201.60;;;;;;5075078;28;20118;-77
2021/07/15 03:27:35;;;;;;;26.42;17.75;;;640.90;2201.60;;;;;;5075145;28;20485;-77
2021/07/15 03:30:06;;;;;;;27.85;16.98;;;640.90;2201.60;;;;;;5063495;28;20035;-78
2021/07/15 03:32:32;;;;;;;28.52;15.95;;;640.90;2201.60;;;;;;5093098;28;20039;-77
2021/07/15 03:34:59;;;;;;;22.05;16.15;;;640.90;2201.60;;;;;;5074832;28;20032;-77
2021/07/15 03:37:25;;;;;;;28.10;16.92;;;640.90;2227.20;;;;;;5093136;28;20028;-77
2021/07/15 03:39:52;;;;;;;28.30;17.55;;;640.80;2227.20;;;;;;5074002;28;20039;-77
2021/07/15 03:42:20;;;;;;;26.58;17.17;;;640.90;2227.20;;;;;;5074841;28;20038;-76
2021/07/15 03:44:46;;;;;;;27.55;16.42;;;640.90;2227.20;;;;;;5093011;28;20027;-76
2021/07/15 03:47:13;;;;;;;29.65;16.55;;;640.90;2227.20;;;;;;5092939;28;20035;-77
2021/07/15 03:49:43;;;;;;;28.17;15.52;;;665.60;2252.80;;;;;;5092606;28;20020;-77
2021/07/15 03:52:16;;;;;;;27.92;16.20;;;665.70;2252.80;;;;;;5081957;28;20477;-77
2021/07/15 03:54:45;;;;;;;25.27;16.50;;;665.80;2227.20;;;;;;5092434;28;20036;-77
2021/07/15 03:57:12;;;;;;;30.35;16.85;;;665.60;2252.80;;;;;;5074577;28;20026;-77
2021/07/15 03:59:50;;;;;;;25.08;16.02;;;665.70;2252.80;;;;;;5073524;28;20028;-77
2021/07/15 04:02:19;;;;;;;21.38;15.68;;;665.70;2252.80;;;;;;5074402;28;20020;-76
2021/07/15 04:04:48;;;;;;;24.20;15.55;;;665.90;2252.80;;;;;;5074111;28;20044;-78
2021/07/15 04:07:17;;;;;;;29.50;16.40;;;665.90;2252.80;;;;;;5092318;28;20020;-77
2021/07/15 04:09:45;;;;;;;34.33;16.98;;;665.90;2252.80;;;;;;5074569;28;20024;-77
2021/07/15 04:12:12;;;;;;;23.42;16.80;;;665.80;2252.80;;;;;;5074354;28;20427;-77
2021/07/15 04:14:40;;;;;;;25.67;18.05;;;665.90;2252.80;;;;;;5092146;28;20077;-77
2021/07/15 04:17:09;;;;;;;37.20;19.25;;;665.70;2278.40;;;;;;5073803;28;20036;-77
2021/07/15 04:19:36;;;;;;;36.72;18.13;;;665.90;2252.80;;;;;;5073776;28;20024;-76
2021/07/15 04:22:05;;;;;;;27.70;16.85;;;665.70;2278.40;;;;;;5073975;28;20028;-77
2021/07/15 04:24:33;;;;;;;28.10;16.90;;;665.60;2278.40;;;;;;5073598;28;20052;-76
2021/07/15 04:27:02;;;;;;;23.77;18.33;;;665.60;2304.00;;;;;;5074193;28;20032;-77
2021/07/15 04:29:29;;;;;;;35.63;17.30;;;665.60;2329.60;;;;;;5073804;28;20020;-77
2021/07/15 04:32:22;;;;;;;27.80;17.17;;;665.60;2304.00;;;;;;5074050;28;20488;-77
2021/07/15 04:34:48;;;;;;;33.00;16.23;;;665.60;2329.60;;;;;;5092089;28;20035;-78
2021/07/15 04:37:17;;;;;;;31.65;15.90;;;665.70;2329.60;;;;;;5091816;28;20494;-78
2021/07/15 04:39:44;;;;;;;28.52;16.77;;;665.70;2304.00;;;;;;5074179;28;20032;-77
2021/07/15 04:42:11;;;;;;;27.33;16.70;;;665.70;2304.00;;;;;;5073772;28;20362;-76
2021/07/15 04:44:39;;;;;;;28.25;16.35;;;665.70;2304.00;;;;;;5091552;28;20016;-75
2021/07/15 04:47:07;;;;;;;30.20;18.10;;;665.90;2304.00;;;;;;5091846;28;20065;-77
2021/07/15 04:49:33;;;;;;;25.98;16.15;;;665.70;2278.40;;;;;;5091682;28;20077;-76
2021/07/15 04:52:01;;;;;;;23.63;16.30;;;665.80;2278.40;;;;;;5073760;28;20464;-75
2021/07/15 04:54:28;;;;;;;28.48;16.00;;;665.90;2278.40;;;;;;5073611;28;20164;-77
2021/07/15 04:56:55;;;;;;;21.35;14.20;;;665.90;2278.40;;;;;;5073848;28;20024;-76
2021/07/15 04:59:21;;;;;;;20.70;14.43;;;665.90;2252.80;;;;;;5073483;28;20035;-78
2021/07/15 05:01:47;;;;;;;26.27;17.83;;;665.90;2278.40;;;;;;5091716;28;20051;-76
2021/07/15 05:04:13;;;;;;;28.70;19.65;;;665.90;2252.80;;;;;;5091375;28;20047;-78
2021/07/15 05:06:39;;;;;;;21.02;12.68;;;666.00;2227.20;;;;;;5073821;28;20497;-79
2021/07/15 05:09:05;;;;;;;18.88;11.32;;;666.00;2176.00;;;;;;5073476;28;20435;-80
2021/07/15 05:11:34;;;;;;;18.17;11.27;;;666.00;2150.40;;;;;;5075960;28;20020;-79
2021/07/15 05:14:04;;;;;;;19.40;11.10;;;666.00;2150.40;;;;;;5095871;28;20028;-79
2021/07/15 05:16:30;;;;;;;15.85;9.95;;;666.00;2150.40;;;;;;5095842;28;20078;-79
2021/07/15 05:18:56;;;;;;;33.13;12.02;;;666.00;2124.80;;;;;;5096075;28;20047;-79
2021/07/15 05:21:22;;;;;;;19.67;12.90;;;666.00;2124.80;;;;;;5077489;28;20466;-79
2021/07/15 05:23:48;;;;;;;31.10;17.38;;;666.00;2124.80;;;;;;5096025;28;20127;-79
2021/07/15 05:26:14;;;;;;;31.08;13.60;;;666.20;2099.20;;;;;;5095443;28;20050;-79
2021/07/15 05:28:42;;;;;;;22.50;11.75;;;666.00;2124.80;;;;;;5095944;28;20020;-79
2021/07/15 05:31:07;;;;;;;13.23;9.88;;;666.00;2124.80;;;;;;5095475;28;20031;-79
2021/07/15 05:33:33;;;;;;;19.10;14.98;;;666.00;2099.20;;;;;;5095659;28;20020;-79
2021/07/15 05:35:59;;;;;;;16.85;12.48;;;666.00;2099.20;;;;;;5095358;28;20497;-78
2021/07/15 05:38:26;;;;;;;15.48;10.23;;;666.20;2099.20;;;;;;5077119;28;20379;-80
2021/07/15 05:40:52;;;;;;;15.20;9.25;;;666.20;2099.20;;;;;;5095596;28;20035;-80
2021/07/15 05:43:18;;;;;;;15.40;9.98;;;666.20;2099.20;;;;;;5095236;28;20382;-79
2021/07/15 05:45:44;;;;;;;21.63;9.85;;;666.30;2073.60;;;;;;5095469;28;20023;-79
2021/07/15 05:48:10;;;;;;;22.08;11.15;;;666.30;2048.00;;;;;;5095104;28;20035;-79
2021/07/15 05:50:35;;;;;;;21.10;10.23;;;666.30;2048.00;;;;;;5095386;28;20400;-80
2021/07/15 05:53:01;;;;;;;17.35;9.82;;;666.40;2022.40;;;;;;5095225;28;20070;-77
2021/07/15 05:55:27;;;;;;;16.85;9.88;;;666.30;2022.40;;;;;;5076881;28;20081;-78
2021/07/15 05:57:53;;;;;;;23.80;9.85;;;666.40;2022.40;;;;;;5076745;28;20028;-80
2021/07/15 06:00:19;;;;;;;23.33;10.77;;;666.40;2022.40;;;;;;5076916;28;20036;-80
2021/07/15 06:02:44;;;;;;;19.85;10.27;;;666.30;2048.00;;;;;;5095005;28;20122;-80
2021/07/15 06:05:10;;;;;;;20.48;9.80;;;666.20;2048.00;;;;;;5076766;28;20052;-81
2021/07/15 06:07:37;;;;;;;16.33;9.38;;;666.30;2022.40;;;;;;5076910;28;20461;-80
2021/07/15 06:10:04;;;;;;;30.90;10.25;;;666.30;2048.00;;;;;;5094867;28;20032;-81
2021/07/15 06:12:30;;;;;;;14.43;9.68;;;666.30;2073.60;;;;;;5076795;28;20770;-80
2021/07/15 06:14:56;;;;;;;18.65;10.00;;;666.30;1996.80;;;;;;5094847;28;20027;-80
2021/07/15 06:17:22;;;;;;;17.08;9.18;;;666.40;1996.80;;;;;;5095032;28;20049;-83
2021/07/15 06:19:48;;;;;;;16.83;9.07;;;666.50;1894.40;;;;;;5076802;28;20124;-80
2021/07/15 06:22:14;;;;;;;15.63;7.93;;;691.20;1920.00;;;;;;5076029;28;20393;-79
2021/07/15 06:24:40;;;;;;;18.02;7.65;;;691.20;1792.00;;;;;;5076153;28;20471;-80
2021/07/15 06:27:06;;;;;;;17.40;7.40;;;691.30;1792.00;;;;;;5076547;28;20056;-79
2021/07/15 06:29:32;;;;;;;14.55;7.25;;;691.40;1792.00;;;;;;5076269;28;20492;-80
2021/07/15 06:31:57;;;;;;;12.20;7.18;;;691.60;1740.80;;;;;;5076302;28;20081;-79
2021/07/15 06:34:23;;;;;;;12.65;6.32;;;691.70;1740.80;;;;;;5076098;28;20082;-79
2021/07/15 06:36:51;;;;;;;10.10;5.50;;;691.70;1664.00;;;;;;5076179;28;20134;-80
2021/07/15 06:39:17;;;;;;;18.00;6.38;;;691.70;1664.00;;;;;;5094480;28;20024;-80
2021/07/15 06:41:43;;;;;;;10.60;5.65;;;691.80;1689.60;;;;;;5076040;28;20024;-80
2021/07/15 06:44:13;;;;;;;21.20;6.10;;;691.80;1689.60;;;;;;5092719;28;20051;-80
2021/07/15 06:46:39;;;;;;;18.25;6.78;;;691.80;1689.60;;;;;;5075529;28;20024;-79
2021/07/15 06:49:06;;;;;;;10.95;5.32;;;691.80;1664.00;;;;;;5093964;28;20021;-79
2021/07/15 06:51:33;;;;;;;16.02;6.32;;;691.80;1664.00;;;;;;5072622;28;20024;-79
2021/07/15 06:53:59;;;;;;;16.80;6.00;;;691.90;1638.40;;;;;;5094064;28;20060;-79
2021/07/15 06:56:24;;;;;;;9.48;4.82;;;691.90;1612.80;;;;;;5091119;28;20056;-80
2021/07/15 06:58:50;;;;;;;15.40;5.80;;;692.10;1587.20;;;;;;5075287;28;20024;-79
2021/07/15 07:01:16;;;;;;;10.40;5.43;;;716.80;1612.80;;;;;;5075849;28;20024;-79
2021/07/15 07:03:42;;;;;;;11.40;5.43;;;716.80;1612.80;;;;;;5087515;28;20081;-77
2021/07/15 07:06:07;;;;;;;9.57;4.80;;;717.00;1612.80;;;;;;5075174;28;20071;-78
2021/07/15 07:08:33;;;;;;;9.10;4.63;;;717.10;1587.20;;;;;;5075551;28;20114;-79
2021/07/15 07:10:59;;;;;;;11.35;4.50;;;717.30;1561.60;;;;;;5093724;28;20559;-79
2021/07/15 07:13:25;;;;;;;10.23;4.00;;;717.30;1536.00;;;;;;5075708;28;20059;-79
2021/07/15 07:15:50;;;;;;;10.13;4.60;;;717.30;1536.00;;;;;;5074903;28;20398;-79
2021/07/15 07:18:16;;;;;;;11.73;4.70;;;717.30;1536.00;;;;;;5093438;28;20504;-79
2021/07/15 07:20:42;;;;;;;10.70;4.43;;;717.60;1536.00;;;;;;5093506;28;20039;-78
2021/07/15 07:23:13;;;;;;;9.52;4.10;;;717.70;1510.40;;;;;;5075321;28;20024;-79
2021/07/15 07:25:40;;;;;;;8.25;3.38;;;742.40;1459.20;;;;;;5093405;28;20024;-80
2021/07/15 07:28:06;;;;;;;7.32;3.95;;;742.40;1484.80;;;;;;5093340;28;20629;-80
2021/07/15 07:30:32;;;;;;;9.88;4.05;;;742.40;1484.80;;;;;;5093234;28;20028;-81
2021/07/15 07:32:57;;;;;;;11.27;3.53;;;742.50;1408.00;;;;;;5074842;28;20497;-77
2021/07/15 07:35:23;;;;;;;6.68;2.85;;;742.50;1433.60;;;;;;5092011;28;20465;-80
2021/07/15 07:37:49;;;;;;;8.88;3.88;;;742.50;1382.40;;;;;;5074987;28;20097;-79
2021/07/15 07:40:16;;;;;;;9.82;3.15;;;742.80;1408.00;;;;;;5074224;28;20039;-80
2021/07/15 07:42:43;;;;;;;6.78;3.10;;;742.70;1382.40;;;;;;5093131;28;20028;-79
2021/07/15 07:45:10;;;;;;;10.18;3.10;;;742.90;1356.80;;;;;;5074742;28;20483;-78
2021/07/15 07:47:36;;;;;;;8.00;3.15;;;742.90;1356.80;;;;;;5092959;28;20020;-80
2021/07/15 07:50:05;;;;;;;13.60;3.75;;;743.00;1382.40;;;;;;5074992;28;20059;-79
2021/07/15 07:52:31;;;;;;;11.82;3.50;;;743.10;1305.60;;;;;;5092648;28;20066;-80
2021/07/15 07:54:57;;;;;;;9.90;2.80;;;743.10;1280.00;;;;;;5093048;28;20028;-77
2021/07/15 07:57:22;;;;;;;9.20;3.28;;;743.10;1305.60;;;;;;5074561;28;20032;-78
2021/07/15 07:59:48;;;;;;;7.40;3.10;;;743.20;1305.60;;;;;;5074652;28;20040;-79
2021/07/15 08:02:14;;;;;;;7.55;2.88;;;743.30;1305.60;;;;;;5092423;28;20024;-78
2021/07/15 08:04:40;;;;;;;8.05;2.70;;;768.10;1280.00;;;;;;5092404;28;20375;-78
2021/07/15 08:07:09;;;;;;;7.80;3.10;;;768.30;1280.00;;;;;;5074685;28;20036;-78
2021/07/15 08:09:42;;;;;;;8.30;3.15;;;768.30;1331.20;;;;;;5074527;28;20020;-81
2021/07/15 08:12:08;;;;;;;11.85;3.58;;;768.50;1280.00;;;;;;5074683;28;20082;-77
2021/07/15 08:14:35;;;;;;;10.60;4.15;;;768.50;1280.00;;;;;;5074169;28;20024;-76
2021/07/15 08:17:01;;;;;;;10.15;3.42;;;768.50;1254.40;;;;;;5092754;28;20474;-76
2021/07/15 08:19:28;;;;;;;9.30;3.45;;;768.70;1331.20;;;;;;5074360;28;20024;-78
2021/07/15 08:21:54;;;;;;;7.88;3.53;;;768.70;1228.80;;;;;;5074410;28;20077;-79
2021/07/15 08:24:20;;;;;;;8.90;4.20;;;768.70;1228.80;;;;;;5074330;28;20119;-80
2021/07/15 08:26:46;;;;;;;8.85;3.60;;;768.90;1280.00;;;;;;5074453;28;20456;-79
2021/07/15 08:29:12;;;;;;;8.38;3.40;;;768.90;1305.60;;;;;;5073630;28;20546;-78
2021/07/15 08:31:38;;;;;;;9.32;3.38;;;793.60;1280.00;;;;;;5074182;28;20030;-78
2021/07/15 08:34:03;;;;;;;6.63;3.47;;;793.60;1228.80;;;;;;5074064;28;20043;-78
2021/07/15 08:36:31;;;;;;;9.18;3.45;;;793.70;1203.20;;;;;;5092187;28;20039;-78
2021/07/15 08:38:58;;;;;;;7.30;3.33;;;793.70;1177.60;;;;;;5092416;28;20016;-79
2021/07/15 08:41:24;;;;;;;8.30;3.30;;;793.70;1203.20;;;;;;5091935;28;20028;-79
2021/07/15 08:43:49;;;;;;;6.60;3.50;;;793.80;1280.00;;;;;;5074449;28;20051;-79
2021/07/15 08:46:17;;;;;;;13.70;3.92;;;793.90;1254.40;;;;;;5072948;28;20060;-78
2021/07/15 08:48:46;;;;;;;10.07;3.85;;;793.90;1254.40;;;;;;5092016;28;20027;-78
2021/07/15 08:51:13;;;;;;;8.85;3.70;;;794.00;1280.00;;;;;;5073838;28;20031;-78
2021/07/15 08:53:39;;;;;;;9.88;3.30;;;794.10;1280.00;;;;;;5073722;28;20492;-78
2021/07/15 08:58:50;;;;;;;6.50;3.67;;;794.20;1254.40;;;;;;5091985;28;20066;-78
2021/07/15 09:01:17;;;;;;;11.23;4.40;;;794.30;1254.40;;;;;;5092102;28;20041;-79
2021/07/15 09:03:43;;;;;;;13.02;4.05;;;794.30;1203.20;;;;;;5073611;28;20658;-79
2021/07/15 09:06:09;;;;;;;9.05;4.18;;;794.50;1280.00;;;;;;5073931;28;20048;-79
2021/07/15 09:08:36;;;;;;;10.68;4.43;;;794.40;1254.40;;;;;;5073885;28;20477;-79
2021/07/15 09:11:02;;;;;;;8.85;4.35;;;794.40;1254.40;;;;;;5073656;28;20103;-78
2021/07/15 09:13:29;;;;;;;8.35;3.55;;;794.40;1305.60;;;;;;5082070;28;20493;-79
2021/07/15 09:15:55;;;;;;;8.93;4.32;;;819.60;1305.60;;;;;;5087709;28;20436;-78
2021/07/15 09:18:21;;;;;;;10.23;4.38;;;819.30;1280.00;;;;;;5073843;28;20028;-79
2021/07/15 09:20:47;;;;;;;10.07;3.85;;;819.30;1254.40;;;;;;5073574;28;20047;-80
2021/07/15 09:23:15;;;;;;;16.85;4.78;;;819.30;1228.80;;;;;;5073726;28;20024;-80
2021/07/15 09:25:41;;;;;;;7.30;4.10;;;819.30;1254.40;;;;;;5091469;28;20024;-84
2021/07/15 09:28:12;;;;;;;14.63;4.65;;;819.40;1228.80;;;;;;5073630;28;20038;-80
2021/07/15 09:30:40;;;;;;;7.68;3.17;;;819.50;1228.80;;;;;;5091809;28;20031;-79
2021/07/15 09:33:11;;;;;;;12.80;3.83;;;819.40;1203.20;;;;;;5091763;28;20012;-79
2021/07/15 09:35:47;;;;;;;10.43;4.85;;;819.50;1203.20;;;;;;5086902;28;20028;-80
2021/07/15 09:38:25;;;;;;;10.30;3.30;;;819.70;1254.40;;;;;;5072927;28;20035;-80
2021/07/15 09:41:00;;;;;;;11.55;4.05;;;819.60;1254.40;;;;;;5091625;28;20024;-82
2021/07/15 09:43:32;;;;;;;12.57;3.85;;;819.70;1152.00;;;;;;5091996;28;20016;-80
2021/07/15 09:46:01;;;;;;;14.85;4.50;;;820.00;1203.20;;;;;;5073835;28;20032;-80
2021/07/15 09:48:31;;;;;;;10.38;4.15;;;819.90;1177.60;;;;;;5073631;28;20041;-79
2021/07/15 09:50:59;;;;;;;16.63;3.30;;;820.10;1152.00;;;;;;5073572;28;20024;-79
2021/07/15 09:53:30;;;;;;;8.88;3.90;;;844.80;1177.60;;;;;;5073408;28;20389;-79
2021/07/15 09:56:16;;;;;;;8.80;3.80;;;844.90;1152.00;;;;;;5073618;28;20142;-80
2021/07/15 09:58:49;;;;;;;12.63;4.35;;;844.90;1177.60;;;;;;5093539;28;20024;-79
2021/07/15 10:01:21;;;;;;;11.43;4.22;;;845.10;1152.00;;;;;;5077313;28;20028;-80
2021/07/15 10:03:52;;;;;;;12.48;4.40;;;845.10;1126.40;;;;;;5077178;28;20020;-79
2021/07/15 10:06:18;;;;;;;12.25;5.90;;;845.20;1203.20;;;;;;5073633;28;20045;-87
2021/07/15 10:08:46;;;;;;;11.45;5.30;;;845.40;1152.00;;;;;;5073756;28;20020;-79
2021/07/15 10:11:24;;;;;;;8.77;4.90;;;845.40;1152.00;;;;;;5073441;28;20433;-80
2021/07/15 10:14:08;;;;;;;10.32;5.30;;;845.70;1126.40;;;;;;5073673;28;20111;-79
2021/07/15 10:16:36;;;;;;;13.75;5.10;;;845.60;1152.00;;;;;;5060779;28;20076;-81
2021/07/15 10:19:03;;;;;;;12.93;5.32;;;845.70;1152.00;;;;;;5074814;28;20027;-80
2021/07/15 10:21:31;;;;;;;14.30;4.80;;;870.50;1126.40;;;;;;5065226;28;20039;-82
2021/07/15 10:23:59;;;;;;;10.02;4.93;;;870.50;1126.40;;;;;;5063826;28;20037;-82
2021/07/15 10:26:25;;;;;;;15.38;5.43;;;870.50;1126.40;;;;;;5065740;28;20497;-82
2021/07/15 10:28:53;;;;;;;10.43;4.45;;;870.50;1100.80;;;;;;5063166;28;20090;-81
2021/07/15 10:31:21;;;;;;;14.38;5.82;;;870.60;1126.40;;;;;;5057491;28;20021;-81
2021/07/15 10:33:47;;;;;;;7.85;4.13;;;870.60;1177.60;;;;;;5059902;28;20042;-80
2021/07/15 10:36:14;;;;;;;7.68;4.53;;;870.60;1126.40;;;;;;5072976;28;20090;-81
2021/07/15 10:38:43;;;;;;;8.75;4.95;;;870.70;1126.40;;;;;;5074609;28;20028;-80
2021/07/15 10:41:10;;;;;;;8.90;4.93;;;870.90;1100.80;;;;;;5074137;28;20095;-79
2021/07/15 10:43:37;;;;;;;12.65;4.82;;;871.00;1075.20;;;;;;5074673;28;20021;-83
2021/07/15 10:46:04;;;;;;;12.32;4.90;;;871.00;1075.20;;;;;;5074055;28;20016;-78
2021/07/15 10:48:34;;;;;;;15.60;6.00;;;870.90;1075.20;;;;;;5073937;28;20020;-79
2021/07/15 10:51:01;;;;;;;11.00;5.05;;;870.90;1126.40;;;;;;5073032;28;20283;-78
2021/07/15 10:53:28;;;;;;;13.75;4.75;;;870.90;1075.20;;;;;;5072537;28;20017;-78
2021/07/15 10:55:55;;;;;;;11.25;5.38;;;871.10;1075.20;;;;;;5072319;28;20586;-78
2021/07/15 10:58:43;;;;;;;11.02;6.13;;;871.20;1075.20;;;;;;5072197;28;20056;-79
2021/07/15 11:01:32;;;;;;;13.77;5.95;;;871.20;1075.20;;;;;;5063018;28;20027;-81
2021/07/15 11:04:38;;;;;;;17.13;6.25;;;871.30;1126.40;;;;;;5073517;28;20474;-81
2021/07/15 11:07:23;;;;;;;11.52;5.43;;;896.50;1049.60;;;;;;4976375;28;20550;-81
2021/07/15 11:09:51;;;;;;;15.50;5.85;;;896.90;998.40;;;;;;4992216;28;20026;-82
2021/07/15 11:12:29;;;;;;;10.55;5.40;;;921.80;1024.00;;;;;;4976120;28;20037;-82
2021/07/15 11:15:21;;;;;;;16.65;6.35;;;922.00;998.40;;;;;;4992685;28;20026;-83
2021/07/15 11:17:54;;;;;;;13.77;5.97;;;922.00;1024.00;;;;;;4975430;28;20113;-85
2021/07/15 11:20:30;;;;;;;13.43;6.18;;;896.90;972.80;;;;;;4976501;28;20029;-86
2021/07/15 11:22:58;;;;;;;11.52;6.35;;;896.90;1024.00;;;;;;4976489;28;20117;-85
2021/07/15 11:25:34;;;;;;;12.80;6.68;;;921.60;1049.60;;;;;;4972479;28;20058;-85
2021/07/15 11:28:10;;;;;;;10.82;6.35;;;922.00;1049.60;;;;;;4988061;28;20047;-80
2021/07/15 11:30:36;;;;;;;15.25;6.65;;;947.20;1024.00;;;;;;4992031;28;20058;-81
2021/07/15 11:33:21;;;;;;;14.55;6.43;;;922.00;1024.00;;;;;;4965096;28;20026;-81
2021/07/15 11:36:10;;;;;;;12.00;6.45;;;922.30;998.40;;;;;;4991474;28;20030;-81
2021/07/15 11:39:06;;;;;;;14.15;6.07;;;922.50;998.40;;;;;;4975743;28;20030;-80
2021/07/15 11:41:46;;;;;;;13.40;5.85;;;947.40;972.80;;;;;;4956068;28;20039;-80
2021/07/15 11:44:13;;;;;;;10.30;5.65;;;948.10;870.40;;;;;;5025784;28;20082;-82
2021/07/15 11:46:40;;;;;;;8.55;6.10;;;947.20;947.20;;;;;;5034606;28;20041;-80
2021/07/15 11:49:16;;;;;;;13.07;6.47;;;922.50;972.80;;;;;;5033984;28;20051;-84
2021/07/15 11:51:48;;;;;;;15.85;7.15;;;947.50;972.80;;;;;;5034620;28;20511;-82
2021/07/15 11:54:23;;;;;;;13.00;6.50;;;947.50;947.20;;;;;;5034618;28;20016;-81
2021/07/15 11:56:50;;;;;;;;;;;947.90;947.20;;;;;;5035019;28;20048;-83
2021/07/15 12:00:03;;;;;;;17.95;7.65;;;947.50;947.20;;;;;;5034570;28;19924;-82
2021/07/15 12:02:39;;;;;;;17.55;7.10;;;947.40;972.80;;;;;;5030981;28;20103;-84
2021/07/15 12:05:10;;;;;;;13.10;6.50;;;947.70;972.80;;;;;;5051052;28;20037;-79
2021/07/15 12:07:38;;;;;;;13.15;6.47;;;948.10;921.60;;;;;;5034479;28;20029;-82
2021/07/15 12:10:08;;;;;;;14.00;7.57;;;947.80;921.60;;;;;;5033970;28;20028;-83
2021/07/15 12:12:41;;;;;;;13.50;7.30;;;973.20;921.60;;;;;;5033969;28;20029;-79
2021/07/15 12:15:14;;;;;;;17.15;8.32;;;973.00;921.60;;;;;;5033720;28;20523;-80
2021/07/15 12:17:41;;;;;;;12.68;6.97;;;947.40;947.20;;;;;;5051667;28;20304;-81
2021/07/15 12:20:09;;;;;;;14.70;6.50;;;947.40;921.60;;;;;;5053565;28;20088;-83